Time;durP1;ratioP1;P1;durP2;ratioP2;P2;SDS_P1;SDS_P2;PMS_P1;PMS_P2;Temp;Humidity;BMP_temperature;BMP_pressure;BME280_temperature;BME280_humidity;BME280_pressure;Samples;Min_cycle;Max_cycle;Signal;HPM_P1;HPM_P2
2022/03/10 00:01:23;;;;;;;16.55;7.72;;;;;;;;;;4952182;28;100140;-72
2022/03/10 00:03:50;;;;;;;19.50;7.68;;;;;;;;;;4967790;28;101374;-72
2022/03/10 00:06:16;;;;;;;17.65;7.72;;;;;;;;;;4967358;28;101164;-71
2022/03/10 00:08:44;;;;;;;17.08;8.13;;;;;;;;;;4967366;28;100096;-72
2022/03/10 00:11:10;;;;;;;17.05;7.90;;;;;;;;;;4968391;28;100059;-72
2022/03/10 00:13:40;;;;;;;16.83;7.40;;;;;;;;;;4967915;28;100192;-72
2022/03/10 00:16:08;;;;;;;15.57;7.95;;;;;;;;;;4966521;28;100593;-72
2022/03/10 00:18:35;;;;;;;17.27;7.82;;;;;;;;;;4967930;28;100159;-71
2022/03/10 00:21:02;;;;;;;20.08;8.48;;;;;;;;;;4967725;28;100277;-72
2022/03/10 00:23:29;;;;;;;18.55;7.90;;;;;;;;;;4967441;28;100966;-72
2022/03/10 00:25:56;;;;;;;17.13;7.75;;;;;;;;;;4968113;28;100662;-73
2022/03/10 00:28:23;;;;;;;17.85;8.05;;;;;;;;;;4969225;28;99979;-72
2022/03/10 00:30:50;;;;;;;15.48;7.00;;;;;;;;;;4968044;28;100103;-72
2022/03/10 00:33:17;;;;;;;16.92;8.07;;;;;;;;;;4950858;28;101558;-73
2022/03/10 00:35:47;;;;;;;19.98;8.52;;;;;;;;;;4951613;28;103779;-72
2022/03/10 00:38:14;;;;;;;20.85;9.52;;;;;;;;;;4968995;28;99962;-71
2022/03/10 00:40:41;;;;;;;20.85;9.77;;;;;;;;;;4968686;28;100026;-72
2022/03/10 00:43:11;;;;;;;22.02;9.30;;;;;;;;;;4967150;28;100592;-72
2022/03/10 00:45:39;;;;;;;19.90;9.07;;;;;;;;;;4951167;28;100739;-71
2022/03/10 00:48:06;;;;;;;22.75;10.20;;;;;;;;;;4951616;28;100102;-72
2022/03/10 00:50:33;;;;;;;21.55;9.90;;;;;;;;;;4951777;28;100273;-72
2022/03/10 00:53:00;;;;;;;21.30;10.05;;;;;;;;;;4967307;28;100311;-72
2022/03/10 00:55:26;;;;;;;20.25;9.73;;;;;;;;;;4967624;28;100608;-72
2022/03/10 00:57:53;;;;;;;23.40;10.68;;;;;;;;;;4968015;28;100098;-73
2022/03/10 01:00:22;;;;;;;25.38;10.55;;;;;;;;;;4969970;28;100137;-72
2022/03/10 01:02:49;;;;;;;22.65;10.85;;;;;;;;;;4971710;28;101629;-72
2022/03/10 01:05:16;;;;;;;21.17;9.73;;;;;;;;;;4937699;28;103250;-72
2022/03/10 01:07:44;;;;;;;20.65;10.60;;;;;;;;;;4953787;28;102432;-72
2022/03/10 01:10:11;;;;;;;16.55;8.52;;;;;;;;;;4937848;28;100114;-73
2022/03/10 01:12:41;;;;;;;21.08;9.88;;;;;;;;;;4937716;28;100190;-72
2022/03/10 01:15:09;;;;;;;19.90;8.73;;;;;;;;;;4970106;28;100611;-72
2022/03/10 01:17:36;;;;;;;19.33;7.22;;;;;;;;;;4968677;28;100026;-72
2022/03/10 01:20:04;;;;;;;15.98;7.18;;;;;;;;;;4969890;28;100245;-72
2022/03/10 01:22:31;;;;;;;14.45;6.60;;;;;;;;;;4969281;28;100233;-72
2022/03/10 01:24:58;;;;;;;14.30;6.82;;;;;;;;;;4952166;28;100604;-73
2022/03/10 01:27:24;;;;;;;17.55;7.13;;;;;;;;;;4953781;28;100816;-72
2022/03/10 01:29:51;;;;;;;14.63;6.85;;;;;;;;;;4954014;28;100213;-73
2022/03/10 01:32:18;;;;;;;14.90;6.57;;;;;;;;;;4953053;28;100822;-73
2022/03/10 01:34:45;;;;;;;14.82;6.30;;;;;;;;;;4953197;28;100549;-72
2022/03/10 01:37:12;;;;;;;15.77;6.60;;;;;;;;;;4969601;28;100183;-72
2022/03/10 01:39:39;;;;;;;17.70;7.40;;;;;;;;;;4937531;28;100178;-72
2022/03/10 01:42:07;;;;;;;20.35;7.53;;;;;;;;;;4953055;28;100138;-72
2022/03/10 01:44:34;;;;;;;16.30;6.90;;;;;;;;;;4969195;28;100613;-72
2022/03/10 01:47:01;;;;;;;20.10;7.75;;;;;;;;;;4969774;28;100103;-72
2022/03/10 01:49:30;;;;;;;17.48;7.65;;;;;;;;;;4970000;28;100017;-72
2022/03/10 01:51:57;;;;;;;18.52;7.30;;;;;;;;;;4969841;28;100180;-71
2022/03/10 01:54:23;;;;;;;21.02;7.75;;;;;;;;;;4937950;28;102639;-71
2022/03/10 01:56:52;;;;;;;20.70;7.35;;;;;;;;;;4954470;28;100149;-71
2022/03/10 01:59:19;;;;;;;18.42;7.78;;;;;;;;;;4969926;28;100062;-71
2022/03/10 02:01:46;;;;;;;16.15;7.00;;;;;;;;;;4970909;28;100105;-71
2022/03/10 02:04:14;;;;;;;18.85;7.72;;;;;;;;;;4954097;28;100666;-72
2022/03/10 02:06:41;;;;;;;16.80;8.50;;;;;;;;;;4953987;28;100121;-72
2022/03/10 02:11:53;;;;;;;18.90;8.13;;;;;;;;;;4955463;28;100277;-72
2022/03/10 02:17:21;;;;;;;20.73;8.73;;;;;;;;;;4971305;28;99858;-71
2022/03/10 02:19:49;;;;;;;14.63;6.60;;;;;;;;;;4969675;28;100188;-71
2022/03/10 02:22:16;;;;;;;17.52;7.13;;;;;;;;;;4969708;28;100123;-71
2022/03/10 02:24:44;;;;;;;16.10;7.82;;;;;;;;;;4953261;28;101789;-72
2022/03/10 02:27:14;;;;;;;19.90;7.28;;;;;;;;;;4952269;28;100217;-72
2022/03/10 02:29:42;;;;;;;18.45;6.75;;;;;;;;;;4971297;28;100002;-71
2022/03/10 02:32:10;;;;;;;16.83;6.45;;;;;;;;;;4952859;28;100221;-72
2022/03/10 02:34:37;;;;;;;14.45;5.95;;;;;;;;;;4969308;28;100648;-71
2022/03/10 02:37:04;;;;;;;17.73;6.35;;;;;;;;;;4952861;28;100099;-73
2022/03/10 02:39:32;;;;;;;18.13;7.15;;;;;;;;;;4969107;28;100069;-72
2022/03/10 02:41:58;;;;;;;14.35;6.30;;;;;;;;;;4936946;28;100349;-72
2022/03/10 02:44:25;;;;;;;14.93;6.47;;;;;;;;;;4953064;28;101182;-72
2022/03/10 02:46:52;;;;;;;15.35;6.45;;;;;;;;;;4968623;28;100153;-73
2022/03/10 02:49:22;;;;;;;15.85;6.70;;;;;;;;;;4953115;28;100050;-72
2022/03/10 02:51:48;;;;;;;15.07;6.00;;;;;;;;;;4953330;28;100168;-72
2022/03/10 02:54:16;;;;;;;13.48;6.53;;;;;;;;;;4953228;28;100692;-72
2022/03/10 02:56:43;;;;;;;19.23;6.75;;;;;;;;;;4953235;28;100082;-72
2022/03/10 02:59:10;;;;;;;16.83;5.90;;;;;;;;;;4953164;28;100007;-72
2022/03/10 03:01:37;;;;;;;15.18;6.45;;;;;;;;;;4969748;28;102497;-73
2022/03/10 03:04:05;;;;;;;13.40;5.90;;;;;;;;;;4920112;28;103570;-71
2022/03/10 03:06:32;;;;;;;14.95;6.55;;;;;;;;;;4937072;28;100234;-71
2022/03/10 03:08:58;;;;;;;14.57;5.68;;;;;;;;;;4969908;28;99999;-71
2022/03/10 03:11:25;;;;;;;13.90;5.55;;;;;;;;;;4969813;28;100265;-73
2022/03/10 03:13:52;;;;;;;17.17;6.70;;;;;;;;;;4969913;28;100593;-72
2022/03/10 03:16:19;;;;;;;11.73;5.55;;;;;;;;;;4969307;28;102416;-71
2022/03/10 03:18:46;;;;;;;11.68;5.38;;;;;;;;;;4968908;28;100125;-71
2022/03/10 03:21:13;;;;;;;12.55;5.50;;;;;;;;;;4967801;28;100821;-71
2022/03/10 03:23:40;;;;;;;14.80;5.68;;;;;;;;;;4968504;28;100603;-71
2022/03/10 03:26:07;;;;;;;11.80;4.95;;;;;;;;;;4952145;28;100003;-73
2022/03/10 03:28:34;;;;;;;12.48;4.95;;;;;;;;;;4968909;28;100129;-71
2022/03/10 03:31:01;;;;;;;13.18;5.00;;;;;;;;;;4969001;28;100675;-71
2022/03/10 03:33:28;;;;;;;10.88;4.97;;;;;;;;;;4952419;28;100566;-72
2022/03/10 03:35:55;;;;;;;13.43;4.78;;;;;;;;;;4970039;28;100370;-73
2022/03/10 03:38:22;;;;;;;12.38;4.95;;;;;;;;;;4968596;28;100020;-73
2022/03/10 03:40:49;;;;;;;13.50;4.18;;;;;;;;;;4969435;28;100363;-72
2022/03/10 03:43:16;;;;;;;12.02;4.38;;;;;;;;;;4968739;28;100705;-72
2022/03/10 03:45:43;;;;;;;9.95;4.57;;;;;;;;;;4952249;28;100127;-72
2022/03/10 03:48:10;;;;;;;10.63;5.00;;;;;;;;;;4969354;28;100131;-74
2022/03/10 03:50:36;;;;;;;13.60;5.18;;;;;;;;;;4967597;28;100091;-72
2022/03/10 03:53:03;;;;;;;12.65;5.13;;;;;;;;;;4968295;28;100516;-72
2022/03/10 03:55:30;;;;;;;12.45;4.65;;;;;;;;;;4968465;28;100215;-72
2022/03/10 03:57:57;;;;;;;12.38;4.32;;;;;;;;;;4968608;28;99949;-73
2022/03/10 04:00:24;;;;;;;11.38;4.80;;;;;;;;;;4969563;28;100153;-73
2022/03/10 04:02:50;;;;;;;9.60;4.47;;;;;;;;;;4969347;28;100509;-73
2022/03/10 04:05:17;;;;;;;15.57;5.20;;;;;;;;;;4969779;28;99874;-74
2022/03/10 04:07:44;;;;;;;11.73;5.40;;;;;;;;;;4968891;28;100223;-72
2022/03/10 04:10:14;;;;;;;11.90;4.95;;;;;;;;;;4969174;28;100764;-72
2022/03/10 04:12:41;;;;;;;10.55;4.70;;;;;;;;;;4968069;28;100504;-72
2022/03/10 04:15:08;;;;;;;13.00;4.95;;;;;;;;;;4968018;28;100046;-72
2022/03/10 04:17:35;;;;;;;12.52;5.20;;;;;;;;;;4968276;28;100105;-72
2022/03/10 04:20:02;;;;;;;11.55;4.25;;;;;;;;;;4935382;28;102303;-71
2022/03/10 04:22:29;;;;;;;12.60;4.72;;;;;;;;;;4967831;28;101231;-72
2022/03/10 04:24:56;;;;;;;11.50;4.40;;;;;;;;;;4968403;28;102222;-72
2022/03/10 04:27:24;;;;;;;10.75;4.82;;;;;;;;;;4969120;28;100155;-72
2022/03/10 04:29:51;;;;;;;9.55;4.15;;;;;;;;;;4968944;28;100786;-72
2022/03/10 04:32:20;;;;;;;9.45;4.38;;;;;;;;;;4968334;28;100626;-71
2022/03/10 04:34:47;;;;;;;10.15;3.75;;;;;;;;;;4972481;28;100169;-72
2022/03/10 04:37:15;;;;;;;10.07;4.25;;;;;;;;;;4971331;28;100072;-72
2022/03/10 04:39:42;;;;;;;11.57;4.18;;;;;;;;;;4970651;28;100217;-72
2022/03/10 04:42:09;;;;;;;10.05;3.78;;;;;;;;;;4971705;28;100544;-73
2022/03/10 04:44:35;;;;;;;15.82;5.00;;;;;;;;;;4971549;28;99954;-73
2022/03/10 04:47:03;;;;;;;13.18;5.13;;;;;;;;;;4968638;28;100212;-73
2022/03/10 04:49:30;;;;;;;13.00;5.95;;;;;;;;;;4970836;28;100285;-73
2022/03/10 04:51:57;;;;;;;14.05;6.30;;;;;;;;;;4970859;28;100522;-72
2022/03/10 04:54:26;;;;;;;15.05;5.88;;;;;;;;;;4939646;28;100068;-73
2022/03/10 04:56:53;;;;;;;10.23;5.03;;;;;;;;;;4972394;28;100073;-72
2022/03/10 04:59:20;;;;;;;13.63;5.43;;;;;;;;;;4971375;28;100743;-72
2022/03/10 05:01:47;;;;;;;13.23;5.55;;;;;;;;;;4970660;28;100527;-72
2022/03/10 05:04:14;;;;;;;11.25;5.10;;;;;;;;;;4970429;28;100181;-73
2022/03/10 05:06:41;;;;;;;15.60;5.78;;;;;;;;;;4972020;28;100076;-73
2022/03/10 05:09:08;;;;;;;17.30;6.63;;;;;;;;;;4971504;28;100246;-73
2022/03/10 05:11:34;;;;;;;11.43;4.97;;;;;;;;;;4954775;28;101135;-72
2022/03/10 05:14:01;;;;;;;11.65;5.72;;;;;;;;;;4970790;28;100239;-74
2022/03/10 05:16:28;;;;;;;13.63;5.50;;;;;;;;;;4972041;28;100115;-73
2022/03/10 05:18:55;;;;;;;13.45;6.10;;;;;;;;;;4971807;28;100121;-72
2022/03/10 05:21:22;;;;;;;13.57;5.00;;;;;;;;;;4972067;28;100595;-73
2022/03/10 05:23:52;;;;;;;14.25;5.75;;;;;;;;;;4970720;28;100010;-72
2022/03/10 05:26:19;;;;;;;12.25;5.07;;;;;;;;;;4954609;28;100167;-73
2022/03/10 05:28:46;;;;;;;17.23;4.75;;;;;;;;;;4970197;28;100152;-73
2022/03/10 05:31:13;;;;;;;12.05;5.47;;;;;;;;;;4953500;28;101674;-72
2022/03/10 05:33:40;;;;;;;13.32;5.28;;;;;;;;;;4970709;28;100174;-72
2022/03/10 05:36:07;;;;;;;13.00;5.22;;;;;;;;;;4970440;28;100129;-72
2022/03/10 05:38:34;;;;;;;10.07;5.00;;;;;;;;;;4970198;28;100112;-72
2022/03/10 05:41:00;;;;;;;12.88;4.25;;;;;;;;;;4971326;28;100755;-72
2022/03/10 05:43:27;;;;;;;10.90;3.92;;;;;;;;;;4971356;28;99962;-72
2022/03/10 05:45:54;;;;;;;8.77;4.03;;;;;;;;;;4969869;28;100189;-72
2022/03/10 05:48:21;;;;;;;9.82;4.18;;;;;;;;;;4971117;28;100554;-72
2022/03/10 05:50:48;;;;;;;9.70;3.80;;;;;;;;;;4970033;28;100564;-72
2022/03/10 05:53:15;;;;;;;8.63;3.67;;;;;;;;;;4953459;28;100052;-72
2022/03/10 05:55:45;;;;;;;7.85;3.80;;;;;;;;;;4954759;28;101184;-72
2022/03/10 05:58:12;;;;;;;10.27;4.00;;;;;;;;;;4969827;28;100137;-72
2022/03/10 06:00:42;;;;;;;7.65;3.72;;;;;;;;;;4970711;28;100602;-72
2022/03/10 06:03:09;;;;;;;10.32;4.38;;;;;;;;;;4970044;28;99959;-73
2022/03/10 06:05:36;;;;;;;11.27;4.40;;;;;;;;;;4969789;28;100100;-73
2022/03/10 06:08:04;;;;;;;12.23;4.70;;;;;;;;;;4953154;28;100245;-72
2022/03/10 06:10:31;;;;;;;12.95;5.25;;;;;;;;;;4937793;28;103818;-72
2022/03/10 06:12:58;;;;;;;9.73;4.38;;;;;;;;;;4953670;28;100092;-73
2022/03/10 06:15:25;;;;;;;11.20;4.15;;;;;;;;;;4969968;28;100138;-71
2022/03/10 06:17:51;;;;;;;10.25;3.78;;;;;;;;;;4952848;28;100465;-71
2022/03/10 06:20:19;;;;;;;11.73;4.75;;;;;;;;;;4953450;28;100542;-72
2022/03/10 06:22:45;;;;;;;11.23;3.85;;;;;;;;;;4970998;28;100004;-72
2022/03/10 06:25:21;;;;;;;8.82;3.95;;;;;;;;;;4953231;28;100080;-72
2022/03/10 06:27:48;;;;;;;8.32;3.60;;;;;;;;;;4969598;28;100220;-72
2022/03/10 06:30:15;;;;;;;8.60;4.72;;;;;;;;;;4970716;28;100728;-72
2022/03/10 06:32:42;;;;;;;11.82;5.00;;;;;;;;;;4953463;28;100149;-72
2022/03/10 06:35:10;;;;;;;10.65;4.43;;;;;;;;;;4970143;28;100175;-72
2022/03/10 06:37:42;;;;;;;11.23;5.95;;;;;;;;;;4938641;28;101472;-72
2022/03/10 06:40:12;;;;;;;9.00;4.45;;;;;;;;;;4952999;28;101180;-72
2022/03/10 06:42:38;;;;;;;10.65;4.72;;;;;;;;;;4969080;28;99855;-72
2022/03/10 06:45:07;;;;;;;11.05;4.55;;;;;;;;;;4986472;28;100051;-72
2022/03/10 06:47:37;;;;;;;12.65;4.82;;;;;;;;;;4969397;28;102924;-72
2022/03/10 06:50:06;;;;;;;12.98;5.07;;;;;;;;;;4953080;28;100948;-72
2022/03/10 06:52:33;;;;;;;10.30;5.22;;;;;;;;;;4953601;28;99991;-72
2022/03/10 06:55:00;;;;;;;11.65;5.03;;;;;;;;;;4970220;28;100122;-72
2022/03/10 06:57:27;;;;;;;9.45;5.05;;;;;;;;;;4951511;28;103040;-72
2022/03/10 06:59:54;;;;;;;8.52;4.60;;;;;;;;;;4937469;28;101012;-71
2022/03/10 07:02:21;;;;;;;11.93;4.90;;;;;;;;;;4953053;28;100171;-72
2022/03/10 07:04:48;;;;;;;10.57;5.65;;;;;;;;;;4970517;28;100319;-73
2022/03/10 07:07:15;;;;;;;11.98;5.28;;;;;;;;;;4952415;28;100320;-73
2022/03/10 07:09:42;;;;;;;10.55;4.85;;;;;;;;;;4969038;28;100650;-72
2022/03/10 07:12:09;;;;;;;11.30;5.25;;;;;;;;;;4968890;28;99939;-72
2022/03/10 07:14:36;;;;;;;10.43;4.85;;;;;;;;;;4969024;28;100111;-71
2022/03/10 07:17:03;;;;;;;10.13;4.75;;;;;;;;;;4952892;28;100605;-71
2022/03/10 07:19:30;;;;;;;9.63;4.22;;;;;;;;;;4969860;28;100700;-71
2022/03/10 07:21:57;;;;;;;8.77;4.78;;;;;;;;;;4969136;28;100016;-72
2022/03/10 07:24:25;;;;;;;8.82;3.97;;;;;;;;;;4970858;28;100054;-71
2022/03/10 07:26:58;;;;;;;8.90;4.45;;;;;;;;;;4970108;28;100220;-71
2022/03/10 07:29:25;;;;;;;10.02;4.63;;;;;;;;;;4964111;28;100595;-72
2022/03/10 07:31:56;;;;;;;8.38;4.53;;;;;;;;;;4968173;28;100092;-72
2022/03/10 07:34:23;;;;;;;9.63;4.30;;;;;;;;;;4968736;28;99972;-72
2022/03/10 07:36:50;;;;;;;9.75;4.38;;;;;;;;;;4948094;28;100176;-71
2022/03/10 07:39:17;;;;;;;6.65;3.63;;;;;;;;;;4969271;28;100558;-71
2022/03/10 07:41:44;;;;;;;8.45;3.92;;;;;;;;;;4969379;28;100090;-72
2022/03/10 07:44:11;;;;;;;8.57;4.35;;;;;;;;;;4969554;28;100122;-71
2022/03/10 07:46:37;;;;;;;18.20;4.90;;;;;;;;;;4968491;28;100170;-71
2022/03/10 07:49:06;;;;;;;10.05;5.13;;;;;;;;;;4936771;28;100584;-71
2022/03/10 07:51:33;;;;;;;10.05;4.50;;;;;;;;;;4969672;28;100275;-70
2022/03/10 07:54:02;;;;;;;11.90;5.25;;;;;;;;;;4952872;28;100053;-70
2022/03/10 07:56:28;;;;;;;9.98;5.70;;;;;;;;;;4951686;28;100187;-71
2022/03/10 07:58:56;;;;;;;15.32;6.05;;;;;;;;;;4968424;28;100682;-71
2022/03/10 08:01:24;;;;;;;12.80;6.05;;;;;;;;;;4952404;28;100110;-71
2022/03/10 08:03:51;;;;;;;11.88;6.15;;;;;;;;;;4952409;28;100032;-71
2022/03/10 08:06:17;;;;;;;11.40;5.65;;;;;;;;;;4952090;28;100133;-71
2022/03/10 08:08:44;;;;;;;10.68;5.45;;;;;;;;;;4969911;28;101200;-71
2022/03/10 08:11:11;;;;;;;15.70;5.82;;;;;;;;;;4971835;28;100236;-71
2022/03/10 08:13:38;;;;;;;10.05;5.05;;;;;;;;;;4955947;28;100138;-71
2022/03/10 08:16:05;;;;;;;11.82;6.00;;;;;;;;;;4971809;28;100124;-72
2022/03/10 08:18:32;;;;;;;10.07;5.63;;;;;;;;;;4972393;28;100561;-72
2022/03/10 08:21:03;;;;;;;14.65;5.93;;;;;;;;;;4972490;28;100064;-72
2022/03/10 08:23:30;;;;;;;11.65;4.90;;;;;;;;;;4971696;28;100222;-72
2022/03/10 08:25:57;;;;;;;9.60;5.00;;;;;;;;;;4972763;28;100329;-72
2022/03/10 08:28:26;;;;;;;11.55;5.18;;;;;;;;;;4971446;28;100619;-73
2022/03/10 08:30:53;;;;;;;10.75;5.25;;;;;;;;;;4971861;28;100150;-73
2022/03/10 08:33:20;;;;;;;8.73;4.45;;;;;;;;;;4971746;28;99848;-73
2022/03/10 08:35:47;;;;;;;9.90;5.10;;;;;;;;;;4987599;28;100181;-73
2022/03/10 08:38:16;;;;;;;9.57;4.47;;;;;;;;;;4971779;28;100626;-73
2022/03/10 08:40:43;;;;;;;9.43;4.22;;;;;;;;;;4971750;28;100105;-73
2022/03/10 08:43:12;;;;;;;9.07;4.57;;;;;;;;;;4971544;28;99997;-73
2022/03/10 08:45:39;;;;;;;11.43;5.53;;;;;;;;;;4971970;28;100222;-73
2022/03/10 08:48:08;;;;;;;10.10;4.63;;;;;;;;;;4955300;28;100644;-72
2022/03/10 08:50:35;;;;;;;14.13;5.15;;;;;;;;;;4972336;28;100211;-73
2022/03/10 08:53:02;;;;;;;9.05;4.40;;;;;;;;;;4954691;28;99903;-73
2022/03/10 08:55:29;;;;;;;9.65;4.15;;;;;;;;;;4955025;28;100205;-73
2022/03/10 08:57:56;;;;;;;10.93;4.40;;;;;;;;;;4972261;28;100618;-72
2022/03/10 09:00:23;;;;;;;12.57;4.70;;;;;;;;;;4954614;28;100238;-74
2022/03/10 09:02:57;;;;;;;;;;;;;;;;;;4973217;28;99993;-71
2022/03/10 09:05:25;;;;;;;8.80;3.67;;;;;;;;;;4970727;28;100139;-71
2022/03/10 09:07:52;;;;;;;8.18;3.97;;;;;;;;;;4938413;28;100569;-72
2022/03/10 09:10:19;;;;;;;7.75;3.90;;;;;;;;;;4970859;28;103038;-71
2022/03/10 09:12:46;;;;;;;10.15;4.15;;;;;;;;;;4972096;28;99961;-71
2022/03/10 09:15:16;;;;;;;10.80;4.93;;;;;;;;;;4969827;28;100154;-72
2022/03/10 09:17:43;;;;;;;11.10;4.30;;;;;;;;;;4969828;28;101114;-72
2022/03/10 09:20:13;;;;;;;8.18;3.58;;;;;;;;;;4970881;28;100095;-72
2022/03/10 09:22:43;;;;;;;9.52;4.03;;;;;;;;;;4971589;28;100195;-72
2022/03/10 09:25:11;;;;;;;7.28;3.47;;;;;;;;;;4970688;28;100146;-72
2022/03/10 09:27:38;;;;;;;7.15;3.95;;;;;;;;;;4970387;28;100658;-72
2022/03/10 09:30:08;;;;;;;8.50;4.07;;;;;;;;;;4954272;28;100179;-72
2022/03/10 09:32:42;;;;;;;6.15;3.42;;;;;;;;;;4954713;28;100072;-72
2022/03/10 09:35:10;;;;;;;8.98;4.55;;;;;;;;;;4969986;28;100152;-72
2022/03/10 09:37:37;;;;;;;12.70;5.03;;;;;;;;;;4971506;28;100656;-72
2022/03/10 09:40:05;;;;;;;10.30;3.78;;;;;;;;;;4971831;28;100032;-73
2022/03/10 09:42:34;;;;;;;9.15;4.05;;;;;;;;;;4935469;28;100065;-73
2022/03/10 09:45:07;;;;;;;10.60;4.22;;;;;;;;;;4971261;28;101800;-72
2022/03/10 09:47:40;;;;;;;9.25;3.63;;;;;;;;;;4953904;28;100746;-73
2022/03/10 09:50:10;;;;;;;8.57;3.50;;;;;;;;;;4970461;28;100117;-73
2022/03/10 09:52:37;;;;;;;8.38;4.05;;;;;;;;;;4969800;28;100164;-72
2022/03/10 09:55:05;;;;;;;10.57;4.65;;;;;;;;;;4970801;28;100215;-73
2022/03/10 09:57:35;;;;;;;9.82;3.63;;;;;;;;;;4969631;28;100632;-72
2022/03/10 10:00:04;;;;;;;10.90;3.85;;;;;;;;;;4953768;28;100046;-72
2022/03/10 10:02:31;;;;;;;7.18;3.95;;;;;;;;;;4953263;28;100218;-73
2022/03/10 10:04:58;;;;;;;6.25;3.28;;;;;;;;;;4971310;28;100222;-71
2022/03/10 10:07:29;;;;;;;9.13;3.40;;;;;;;;;;4970475;28;101081;-72
2022/03/10 10:09:57;;;;;;;7.40;2.97;;;;;;;;;;4969999;28;100037;-71
2022/03/10 10:12:30;;;;;;;10.13;3.80;;;;;;;;;;4971018;28;99891;-73
2022/03/10 10:14:58;;;;;;;7.45;3.42;;;;;;;;;;4970148;28;100129;-72
2022/03/10 10:17:27;;;;;;;8.25;3.22;;;;;;;;;;4970559;28;101084;-73
2022/03/10 10:19:59;;;;;;;6.65;3.55;;;;;;;;;;4969708;28;100191;-73
2022/03/10 10:22:35;;;;;;;8.35;3.50;;;;;;;;;;4954676;28;100136;-71
2022/03/10 10:25:05;;;;;;;6.43;3.35;;;;;;;;;;4970200;28;100131;-71
2022/03/10 10:27:33;;;;;;;7.63;3.70;;;;;;;;;;4970471;28;100614;-72
2022/03/10 10:30:05;;;;;;;6.72;3.35;;;;;;;;;;4952296;28;100223;-72
2022/03/10 10:32:35;;;;;;;9.30;3.80;;;;;;;;;;4969113;28;100145;-71
2022/03/10 10:35:10;;;;;;;7.90;3.30;;;;;;;;;;4967958;28;100418;-73
2022/03/10 10:37:39;;;;;;;14.25;3.70;;;;;;;;;;4949135;28;101193;-74
2022/03/10 10:40:07;;;;;;;6.20;3.05;;;;;;;;;;4969491;28;99982;-74
2022/03/10 10:42:36;;;;;;;8.98;3.70;;;;;;;;;;4968938;28;100014;-71
2022/03/10 10:45:26;;;;;;;6.35;3.17;;;;;;;;;;4970224;28;100247;-73
2022/03/10 10:48:08;;;;;;;9.23;3.50;;;;;;;;;;4966470;28;100586;-72
2022/03/10 10:50:44;;;;;;;8.57;3.25;;;;;;;;;;4968144;28;100583;-71
2022/03/10 10:53:29;;;;;;;6.28;2.83;;;;;;;;;;4953092;28;100117;-72
2022/03/10 10:56:02;;;;;;;8.30;3.30;;;;;;;;;;4948784;28;101528;-72
2022/03/10 10:58:28;;;;;;;7.82;3.30;;;;;;;;;;4968206;28;100572;-71
2022/03/10 11:00:57;;;;;;;8.65;3.30;;;;;;;;;;4968363;28;100100;-70
2022/03/10 11:03:31;;;;;;;6.40;3.00;;;;;;;;;;4969264;28;100354;-72
2022/03/10 11:05:58;;;;;;;8.25;3.20;;;;;;;;;;4968218;28;101383;-71
2022/03/10 11:08:26;;;;;;;5.05;2.90;;;;;;;;;;4951874;28;100653;-71
2022/03/10 11:10:53;;;;;;;7.28;3.25;;;;;;;;;;4952229;28;100391;-71
2022/03/10 11:13:21;;;;;;;8.38;3.55;;;;;;;;;;4969730;28;100168;-71
2022/03/10 11:15:49;;;;;;;7.38;3.38;;;;;;;;;;4966940;28;100768;-71
2022/03/10 11:18:16;;;;;;;6.47;3.25;;;;;;;;;;4967124;28;100719;-71
2022/03/10 11:20:45;;;;;;;10.73;3.60;;;;;;;;;;4935603;28;100633;-71
2022/03/10 11:23:49;;;;;;;7.10;3.15;;;;;;;;;;4967692;28;100018;-72
2022/03/10 11:26:20;;;;;;;7.00;3.10;;;;;;;;;;4967739;28;100209;-72
2022/03/10 11:28:47;;;;;;;6.90;3.35;;;;;;;;;;4937003;28;101124;-72
2022/03/10 11:31:14;;;;;;;8.20;2.90;;;;;;;;;;4951319;28;100516;-72
2022/03/10 11:33:43;;;;;;;7.93;3.40;;;;;;;;;;4968783;28;99973;-72
2022/03/10 11:36:21;;;;;;;6.18;3.20;;;;;;;;;;4964371;28;100259;-72
2022/03/10 11:39:12;;;;;;;6.57;2.95;;;;;;;;;;4967257;28;100656;-71
2022/03/10 11:41:46;;;;;;;7.68;3.53;;;;;;;;;;4967926;28;100004;-71
2022/03/10 11:44:13;;;;;;;7.93;2.83;;;;;;;;;;4967274;28;100127;-73
2022/03/10 11:46:53;;;;;;;7.32;3.13;;;;;;;;;;4951308;28;100795;-72
2022/03/10 11:49:20;;;;;;;7.07;3.10;;;;;;;;;;4951415;28;100596;-73
2022/03/10 11:51:52;;;;;;;7.00;3.13;;;;;;;;;;4951750;28;100820;-72
2022/03/10 11:54:22;;;;;;;6.78;3.15;;;;;;;;;;4951566;28;101812;-72
2022/03/10 11:56:52;;;;;;;6.60;3.20;;;;;;;;;;4983852;28;100110;-71
2022/03/10 11:59:40;;;;;;;8.45;3.55;;;;;;;;;;4968186;28;102933;-71
2022/03/10 12:02:08;;;;;;;9.27;3.20;;;;;;;;;;4970567;28;100077;-72
2022/03/10 12:04:39;;;;;;;8.90;3.72;;;;;;;;;;4967211;28;100234;-72
2022/03/10 12:07:08;;;;;;;12.85;4.53;;;;;;;;;;4967286;28;100244;-73
2022/03/10 12:09:38;;;;;;;6.72;3.40;;;;;;;;;;4965709;28;100700;-72
2022/03/10 12:12:18;;;;;;;9.55;4.05;;;;;;;;;;4966654;28;100150;-72
2022/03/10 12:15:23;;;;;;;10.55;3.55;;;;;;;;;;4967006;28;100227;-72
2022/03/10 12:17:52;;;;;;;10.07;4.70;;;;;;;;;;4968498;28;100600;-72
2022/03/10 12:20:40;;;;;;;7.50;3.45;;;;;;;;;;4966895;28;100800;-72
2022/03/10 12:23:07;;;;;;;7.78;3.33;;;;;;;;;;4968599;28;100054;-72
2022/03/10 12:25:53;;;;;;;5.93;3.42;;;;;;;;;;4967605;28;100071;-73
2022/03/10 12:28:37;;;;;;;6.18;3.33;;;;;;;;;;4967277;28;100276;-71
2022/03/10 12:31:12;;;;;;;6.25;3.03;;;;;;;;;;4950172;28;101851;-71
2022/03/10 12:33:53;;;;;;;9.90;4.15;;;;;;;;;;4967589;28;99957;-72
2022/03/10 12:36:39;;;;;;;8.60;3.42;;;;;;;;;;4933788;28;100228;-72
2022/03/10 12:39:13;;;;;;;8.27;3.67;;;;;;;;;;4967281;28;100435;-72
2022/03/10 12:41:40;;;;;;;12.07;3.90;;;;;;;;;;4951442;28;101375;-72
2022/03/10 12:44:09;;;;;;;11.88;4.10;;;;;;;;;;4969136;28;99973;-71
2022/03/10 12:46:37;;;;;;;8.40;3.90;;;;;;;;;;4950790;28;99965;-72
2022/03/10 12:49:23;;;;;;;8.35;3.58;;;;;;;;;;4950785;28;100235;-72
2022/03/10 12:51:50;;;;;;;9.00;3.70;;;;;;;;;;4967181;28;100686;-72
2022/03/10 12:54:18;;;;;;;7.75;3.80;;;;;;;;;;4953077;28;100238;-72
2022/03/10 12:56:54;;;;;;;12.55;4.07;;;;;;;;;;4954731;28;100097;-72
2022/03/10 12:59:34;;;;;;;10.20;5.22;;;;;;;;;;4954757;28;100276;-73
2022/03/10 13:02:26;;;;;;;6.82;3.38;;;;;;;;;;4971156;28;100665;-73
2022/03/10 13:05:07;;;;;;;10.73;4.30;;;;;;;;;;4980695;28;100131;-72
2022/03/10 13:07:35;;;;;;;6.60;3.28;;;;;;;;;;4954363;28;100089;-72
2022/03/10 13:10:09;;;;;;;8.07;3.60;;;;;;;;;;4970518;28;102184;-72
2022/03/10 13:12:40;;;;;;;7.63;3.80;;;;;;;;;;4954612;28;100864;-74
2022/03/10 13:15:08;;;;;;;6.60;3.88;;;;;;;;;;4954069;28;100212;-72
2022/03/10 13:17:39;;;;;;;7.20;3.45;;;;;;;;;;4971616;28;100040;-72
2022/03/10 13:20:22;;;;;;;11.57;4.15;;;;;;;;;;4955181;28;100450;-72
2022/03/10 13:22:59;;;;;;;8.00;3.78;;;;;;;;;;4954483;28;100590;-72
2022/03/10 13:25:27;;;;;;;6.50;3.20;;;;;;;;;;4969456;28;100183;-73
2022/03/10 13:28:21;;;;;;;8.32;3.88;;;;;;;;;;4969965;28;100135;-73
2022/03/10 13:30:48;;;;;;;8.55;3.60;;;;;;;;;;4952874;28;102913;-73
2022/03/10 13:33:17;;;;;;;8.55;4.40;;;;;;;;;;4953526;28;100590;-72
2022/03/10 13:35:46;;;;;;;8.93;4.38;;;;;;;;;;4970116;28;100200;-72
2022/03/10 13:38:20;;;;;;;7.68;3.65;;;;;;;;;;4971488;28;100131;-72
2022/03/10 13:40:47;;;;;;;8.30;3.95;;;;;;;;;;4971114;28;100249;-72
2022/03/10 13:43:21;;;;;;;10.25;4.47;;;;;;;;;;4969684;28;101172;-73
2022/03/10 13:45:48;;;;;;;7.32;3.60;;;;;;;;;;4969081;28;100473;-72
2022/03/10 13:48:18;;;;;;;5.75;2.85;;;;;;;;;;4953011;28;100116;-73
2022/03/10 13:50:45;;;;;;;7.60;3.63;;;;;;;;;;4967845;28;100468;-72
2022/03/10 13:53:12;;;;;;;8.18;3.67;;;;;;;;;;4953386;28;100819;-71
2022/03/10 13:55:45;;;;;;;8.27;3.83;;;;;;;;;;4953431;28;100196;-71
2022/03/10 13:58:12;;;;;;;9.63;4.28;;;;;;;;;;4950805;28;100280;-71
2022/03/10 14:00:47;;;;;;;9.27;4.10;;;;;;;;;;4966853;28;100356;-71
2022/03/10 14:03:38;;;;;;;8.55;4.13;;;;;;;;;;4967437;28;101354;-73
2022/03/10 14:06:05;;;;;;;6.57;3.65;;;;;;;;;;4965583;28;101800;-73
2022/03/10 14:08:36;;;;;;;7.22;3.95;;;;;;;;;;4968239;28;100098;-73
2022/03/10 14:11:05;;;;;;;11.57;3.47;;;;;;;;;;4970273;28;100162;-71
2022/03/10 14:13:39;;;;;;;8.35;4.18;;;;;;;;;;4966505;28;101029;-72
2022/03/10 14:16:13;;;;;;;10.25;4.25;;;;;;;;;;4967255;28;100188;-72
2022/03/10 14:18:47;;;;;;;8.23;3.92;;;;;;;;;;4969415;28;100156;-71
2022/03/10 14:21:33;;;;;;;10.15;4.68;;;;;;;;;;4969533;28;100767;-72
2022/03/10 14:24:02;;;;;;;10.50;3.80;;;;;;;;;;4968676;28;101172;-72
2022/03/10 14:26:37;;;;;;;7.18;3.30;;;;;;;;;;4937275;28;100398;-71
2022/03/10 14:29:04;;;;;;;6.40;3.38;;;;;;;;;;4969939;28;101246;-72
2022/03/10 14:31:31;;;;;;;10.63;4.38;;;;;;;;;;4970094;28;100432;-72
2022/03/10 14:33:58;;;;;;;11.88;4.38;;;;;;;;;;4970222;28;101168;-72
2022/03/10 14:36:24;;;;;;;9.68;4.20;;;;;;;;;;4936827;28;100181;-72
2022/03/10 14:38:52;;;;;;;7.82;3.38;;;;;;;;;;4966038;28;100521;-71
2022/03/10 14:41:23;;;;;;;7.88;4.07;;;;;;;;;;4969109;28;100773;-73